map of VVC home
VVC - Airport
Location
City:  Villavicencio, Meta, Colombia
Name:Vanguardia Airport
ICAO:SKVV
IATA:VVC

Details
Type:Airport (Aerodrome, Airfield)
Use:Public/Civil
Latitude:410'04"N (4.167875)
Longitude:7336'50"W (-73.613760)
Datum:WGS 1984
Elevation:1394 ft (425 m)
Variation:7.67W (WMM2015 magnetic declination)
-0.14 annual change
Runways:1
Longest:5616 × 98 ft (1712 × 30 m), paved

Time
Time Zone:UTC-5
Local Time:

Weather
METAR:SKVV 162100Z 33006KT 9999 FEW020 27/19 A2979

Related Locations
Nearby:
Farthest:TKG: 12328 mi / 19840 km
Bandar Lampung [Branti (Radin Inten Li)], LA, ID

Find:

   beyond  
but within

Other Information
Maps:
NOTAMs:
Links:
Sources:

  
  • flag of Colombia
  • flag of Meta
  

Sectional Chart

Flight Planning
at skyvector.com

Satellite Image

Google Maps Satellite view

 

Copyright © 2004-2018 Karl L. Swartz. All rights reserved.
The Great Circle Mapper name and logo are trademarks of the Great Circle Mapper.
All other trademarks mentioned herein belong to their respective owners.
Please see credits for attibutions and further copyright information.

  Follow gcmap on Facebook Follow gcmap on Twitter Follow gcmap on Google+ GCmap on LinkedIn

hCard Microformat

Geo Microformat